LAR weather

La Arrobleda Airport
Caloto, Cauca Department, Colombia

Public forecast

Using degrees Celsius for public forecast. Weather courtesy of forecast.io.

Closest aviation weather report (METAR) to La Arrobleda Airport

Closest report is Alfonso Bonilla Aragon International Airport, 25.3 nm (46.8 km) N. Retrieved 2020/02/22 22:00 UTC (27 minutes ago):

SKCL 222200Z 35004KT 8000 FEW020 BKN300 28/20A2994 NOSIG

Closest aviation forecast (TAF) to La Arrobleda Airport

Closest forecast is Alfonso Bonilla Aragon International Airport, 25.3 nm (46.8 km) N. Retrieved 2020/02/22 18:30 UTC (4 hours ago):

TAF SKCL 221630Z 2218/2318 29006KT 9000 SCT017TCU BKN250 TEMPO 2219/2222 8000 VCSH PROB30 TEMPO 2222/2224 7000 DZRA BECMG 2300/2302 VRB02KT SCT015 BKN090 TEMPO 2303/2306 8000 VCSH TEMPO 2310/2314 7000 VCFG TX29/2219Z TN19/2310Z